sensor_id;sensor_type;location;lat;lon;timestamp;temperature;humidity
3360;DHT22;1693;49.602;11.046;2023-11-19T00:00:27;5.40;99.90
3360;DHT22;1693;49.602;11.046;2023-11-19T00:02:54;5.30;99.90
3360;DHT22;1693;49.602;11.046;2023-11-19T00:05:23;5.40;99.90
3360;DHT22;1693;49.602;11.046;2023-11-19T00:07:51;5.40;99.90
3360;DHT22;1693;49.602;11.046;2023-11-19T00:10:20;5.30;99.90
3360;DHT22;1693;49.602;11.046;2023-11-19T00:12:48;5.40;99.90
3360;DHT22;1693;49.602;11.046;2023-11-19T00:15:17;5.30;99.90
3360;DHT22;1693;49.602;11.046;2023-11-19T00:17:48;5.30;99.90
3360;DHT22;1693;49.602;11.046;2023-11-19T00:20:17;5.20;99.90
3360;DHT22;1693;49.602;11.046;2023-11-19T00:22:50;5.40;99.90
3360;DHT22;1693;49.602;11.046;2023-11-19T00:25:17;5.40;99.90
3360;DHT22;1693;49.602;11.046;2023-11-19T00:27:47;5.30;99.90
3360;DHT22;1693;49.602;11.046;2023-11-19T00:30:19;5.40;99.90
3360;DHT22;1693;49.602;11.046;2023-11-19T00:32:46;5.40;99.90
3360;DHT22;1693;49.602;11.046;2023-11-19T00:35:16;5.40;99.90
3360;DHT22;1693;49.602;11.046;2023-11-19T00:37:45;5.40;99.90
3360;DHT22;1693;49.602;11.046;2023-11-19T00:40:21;5.50;99.90
3360;DHT22;1693;49.602;11.046;2023-11-19T00:42:50;5.50;99.90
3360;DHT22;1693;49.602;11.046;2023-11-19T00:45:17;5.50;99.90
3360;DHT22;1693;49.602;11.046;2023-11-19T00:47:45;5.40;99.90
3360;DHT22;1693;49.602;11.046;2023-11-19T00:50:13;5.50;99.90
3360;DHT22;1693;49.602;11.046;2023-11-19T00:52:43;5.40;99.90
3360;DHT22;1693;49.602;11.046;2023-11-19T00:55:20;5.50;99.90
3360;DHT22;1693;49.602;11.046;2023-11-19T00:57:51;5.40;99.90
3360;DHT22;1693;49.602;11.046;2023-11-19T01:00:28;5.60;99.90
3360;DHT22;1693;49.602;11.046;2023-11-19T01:02:59;5.70;99.90
3360;DHT22;1693;49.602;11.046;2023-11-19T04:42:59;6.50;99.90
3360;DHT22;1693;49.602;11.046;2023-11-19T04:45:28;6.30;99.90
3360;DHT22;1693;49.602;11.046;2023-11-19T04:47:58;6.30;99.90
3360;DHT22;1693;49.602;11.046;2023-11-19T04:50:30;6.30;99.90
3360;DHT22;1693;49.602;11.046;2023-11-19T04:52:58;6.40;99.90
3360;DHT22;1693;49.602;11.046;2023-11-19T04:55:25;6.40;99.90
3360;DHT22;1693;49.602;11.046;2023-11-19T04:57:54;6.50;99.90
3360;DHT22;1693;49.602;11.046;2023-11-19T05:00:21;6.50;99.90
3360;DHT22;1693;49.602;11.046;2023-11-19T05:02:48;6.70;99.90
3360;DHT22;1693;49.602;11.046;2023-11-19T05:05:21;6.50;99.90
3360;DHT22;1693;49.602;11.046;2023-11-19T05:07:50;6.50;99.90
3360;DHT22;1693;49.602;11.046;2023-11-19T05:10:19;6.50;99.90
3360;DHT22;1693;49.602;11.046;2023-11-19T05:12:48;6.60;99.90
3360;DHT22;1693;49.602;11.046;2023-11-19T05:15:17;6.60;99.90
3360;DHT22;1693;49.602;11.046;2023-11-19T05:17:48;6.50;99.90
3360;DHT22;1693;49.602;11.046;2023-11-19T05:20:16;6.50;99.90
3360;DHT22;1693;49.602;11.046;2023-11-19T05:22:43;6.50;99.90
3360;DHT22;1693;49.602;11.046;2023-11-19T05:25:12;6.60;99.90
3360;DHT22;1693;49.602;11.046;2023-11-19T05:27:44;6.50;99.90
3360;DHT22;1693;49.602;11.046;2023-11-19T05:30:14;6.60;99.90
3360;DHT22;1693;49.602;11.046;2023-11-19T05:32:41;6.60;99.90
3360;DHT22;1693;49.602;11.046;2023-11-19T05:35:08;6.60;99.90
3360;DHT22;1693;49.602;11.046;2023-11-19T05:37:35;6.60;99.90
3360;DHT22;1693;49.602;11.046;2023-11-19T05:40:03;6.60;99.90
3360;DHT22;1693;49.602;11.046;2023-11-19T05:42:39;6.70;99.90
3360;DHT22;1693;49.602;11.046;2023-11-19T05:45:09;6.70;99.90
3360;DHT22;1693;49.602;11.046;2023-11-19T05:47:37;6.70;99.90
3360;DHT22;1693;49.602;11.046;2023-11-19T05:50:05;6.70;99.90
3360;DHT22;1693;49.602;11.046;2023-11-19T05:52:32;6.80;99.90
3360;DHT22;1693;49.602;11.046;2023-11-19T05:54:59;6.90;99.90
3360;DHT22;1693;49.602;11.046;2023-11-19T05:57:29;7.00;99.90
3360;DHT22;1693;49.602;11.046;2023-11-19T05:59:56;7.00;99.90
3360;DHT22;1693;49.602;11.046;2023-11-19T06:02:26;7.20;99.90
3360;DHT22;1693;49.602;11.046;2023-11-19T06:04:56;7.20;99.90
3360;DHT22;1693;49.602;11.046;2023-11-19T06:07:23;7.30;99.90
3360;DHT22;1693;49.602;11.046;2023-11-19T06:09:52;7.40;99.90
3360;DHT22;1693;49.602;11.046;2023-11-19T06:12:19;7.40;99.90
3360;DHT22;1693;49.602;11.046;2023-11-19T06:14:46;7.30;99.90
3360;DHT22;1693;49.602;11.046;2023-11-19T06:17:13;7.30;99.90
3360;DHT22;1693;49.602;11.046;2023-11-19T06:19:42;7.20;99.90
3360;DHT22;1693;49.602;11.046;2023-11-19T06:22:08;7.10;99.90
3360;DHT22;1693;49.602;11.046;2023-11-19T06:24:37;7.20;99.90
3360;DHT22;1693;49.602;11.046;2023-11-19T06:27:04;7.20;99.90
3360;DHT22;1693;49.602;11.046;2023-11-19T06:29:31;7.20;99.90
3360;DHT22;1693;49.602;11.046;2023-11-19T06:31:58;7.20;99.90
3360;DHT22;1693;49.602;11.046;2023-11-19T06:34:25;7.10;99.90
3360;DHT22;1693;49.602;11.046;2023-11-19T06:36:54;7.20;99.90
3360;DHT22;1693;49.602;11.046;2023-11-19T06:39:21;7.20;99.90
3360;DHT22;1693;49.602;11.046;2023-11-19T06:41:48;7.20;99.90
3360;DHT22;1693;49.602;11.046;2023-11-19T06:44:15;7.30;99.90
3360;DHT22;1693;49.602;11.046;2023-11-19T06:46:42;7.40;99.90
3360;DHT22;1693;49.602;11.046;2023-11-19T06:49:09;7.40;99.90
3360;DHT22;1693;49.602;11.046;2023-11-19T06:51:41;7.50;99.90
3360;DHT22;1693;49.602;11.046;2023-11-19T06:54:11;7.60;99.90
3360;DHT22;1693;49.602;11.046;2023-11-19T06:56:38;7.60;99.90
3360;DHT22;1693;49.602;11.046;2023-11-19T06:59:06;7.60;99.90
3360;DHT22;1693;49.602;11.046;2023-11-19T07:01:35;7.60;99.90
3360;DHT22;1693;49.602;11.046;2023-11-19T07:04:03;7.50;99.90
3360;DHT22;1693;49.602;11.046;2023-11-19T07:06:35;7.50;99.90
3360;DHT22;1693;49.602;11.046;2023-11-19T07:09:02;7.50;99.90
3360;DHT22;1693;49.602;11.046;2023-11-19T07:11:37;7.60;99.90
3360;DHT22;1693;49.602;11.046;2023-11-19T07:14:04;7.50;99.90
3360;DHT22;1693;49.602;11.046;2023-11-19T07:16:32;7.60;99.90
3360;DHT22;1693;49.602;11.046;2023-11-19T07:19:00;7.70;99.90
3360;DHT22;1693;49.602;11.046;2023-11-19T07:21:27;7.70;99.90
3360;DHT22;1693;49.602;11.046;2023-11-19T07:23:54;7.70;99.90
3360;DHT22;1693;49.602;11.046;2023-11-19T07:26:22;7.70;99.90
3360;DHT22;1693;49.602;11.046;2023-11-19T07:28:50;7.70;99.90
3360;DHT22;1693;49.602;11.046;2023-11-19T07:31:21;7.80;99.90
3360;DHT22;1693;49.602;11.046;2023-11-19T07:33:51;7.80;99.90
3360;DHT22;1693;49.602;11.046;2023-11-19T07:36:18;7.80;99.90
3360;DHT22;1693;49.602;11.046;2023-11-19T07:38:45;8.00;99.90
3360;DHT22;1693;49.602;11.046;2023-11-19T07:41:13;8.20;99.90
3360;DHT22;1693;49.602;11.046;2023-11-19T07:43:42;8.30;99.90
3360;DHT22;1693;49.602;11.046;2023-11-19T07:46:14;8.20;99.90
3360;DHT22;1693;49.602;11.046;2023-11-19T07:48:41;8.20;99.90
3360;DHT22;1693;49.602;11.046;2023-11-19T07:51:10;8.20;99.90
3360;DHT22;1693;49.602;11.046;2023-11-19T07:53:37;8.30;99.90
3360;DHT22;1693;49.602;11.046;2023-11-19T07:56:06;8.10;99.90
3360;DHT22;1693;49.602;11.046;2023-11-19T07:58:34;8.20;99.90
3360;DHT22;1693;49.602;11.046;2023-11-19T08:01:01;8.20;99.90
3360;DHT22;1693;49.602;11.046;2023-11-19T08:03:32;8.20;99.90
3360;DHT22;1693;49.602;11.046;2023-11-19T08:06:00;8.30;99.90
3360;DHT22;1693;49.602;11.046;2023-11-19T08:08:28;8.40;99.90
3360;DHT22;1693;49.602;11.046;2023-11-19T08:11:00;8.40;99.90
3360;DHT22;1693;49.602;11.046;2023-11-19T08:13:27;8.40;99.90
3360;DHT22;1693;49.602;11.046;2023-11-19T08:15:55;8.40;99.90
3360;DHT22;1693;49.602;11.046;2023-11-19T08:18:24;8.40;99.90
3360;DHT22;1693;49.602;11.046;2023-11-19T08:20:52;8.60;99.90
3360;DHT22;1693;49.602;11.046;2023-11-19T08:23:19;8.70;99.90
3360;DHT22;1693;49.602;11.046;2023-11-19T08:25:46;8.70;99.90
3360;DHT22;1693;49.602;11.046;2023-11-19T08:28:14;8.70;99.90
3360;DHT22;1693;49.602;11.046;2023-11-19T08:30:42;8.80;99.90
3360;DHT22;1693;49.602;11.046;2023-11-19T08:33:13;9.00;99.90
3360;DHT22;1693;49.602;11.046;2023-11-19T08:35:41;9.20;99.90
3360;DHT22;1693;49.602;11.046;2023-11-19T08:38:09;9.20;99.90
3360;DHT22;1693;49.602;11.046;2023-11-19T08:40:36;9.20;99.90
3360;DHT22;1693;49.602;11.046;2023-11-19T08:43:04;9.30;99.90
3360;DHT22;1693;49.602;11.046;2023-11-19T08:45:32;9.10;99.90
3360;DHT22;1693;49.602;11.046;2023-11-19T08:48:01;9.20;99.90
3360;DHT22;1693;49.602;11.046;2023-11-19T08:50:28;9.20;99.90
3360;DHT22;1693;49.602;11.046;2023-11-19T08:52:57;9.30;99.90
3360;DHT22;1693;49.602;11.046;2023-11-19T08:55:25;9.40;99.90
3360;DHT22;1693;49.602;11.046;2023-11-19T08:57:52;9.30;99.90
3360;DHT22;1693;49.602;11.046;2023-11-19T09:00:20;9.40;99.90
3360;DHT22;1693;49.602;11.046;2023-11-19T09:02:48;9.60;99.90
3360;DHT22;1693;49.602;11.046;2023-11-19T09:05:15;9.90;99.90
3360;DHT22;1693;49.602;11.046;2023-11-19T09:07:44;10.40;99.90
3360;DHT22;1693;49.602;11.046;2023-11-19T09:10:11;10.40;99.90
3360;DHT22;1693;49.602;11.046;2023-11-19T09:12:41;10.50;99.90
3360;DHT22;1693;49.602;11.046;2023-11-19T09:15:11;10.70;99.90
3360;DHT22;1693;49.602;11.046;2023-11-19T09:17:38;10.80;99.90
3360;DHT22;1693;49.602;11.046;2023-11-19T09:20:09;11.00;99.90
3360;DHT22;1693;49.602;11.046;2023-11-19T09:22:40;11.10;99.90
3360;DHT22;1693;49.602;11.046;2023-11-19T09:25:09;11.30;99.90
3360;DHT22;1693;49.602;11.046;2023-11-19T09:27:37;11.50;99.90
3360;DHT22;1693;49.602;11.046;2023-11-19T09:30:12;11.80;99.90
3360;DHT22;1693;49.602;11.046;2023-11-19T09:32:39;11.90;99.90
3360;DHT22;1693;49.602;11.046;2023-11-19T09:35:08;11.90;99.90
3360;DHT22;1693;49.602;11.046;2023-11-19T09:37:38;12.00;99.90
3360;DHT22;1693;49.602;11.046;2023-11-19T09:40:07;12.00;99.90
3360;DHT22;1693;49.602;11.046;2023-11-19T09:42:42;12.10;99.90
3360;DHT22;1693;49.602;11.046;2023-11-19T09:45:14;12.20;99.90
3360;DHT22;1693;49.602;11.046;2023-11-19T09:47:43;12.20;99.90
3360;DHT22;1693;49.602;11.046;2023-11-19T09:50:14;12.30;99.90
3360;DHT22;1693;49.602;11.046;2023-11-19T09:52:44;12.20;99.90
3360;DHT22;1693;49.602;11.046;2023-11-19T09:55:12;12.30;99.90
3360;DHT22;1693;49.602;11.046;2023-11-19T09:57:40;12.50;99.90
3360;DHT22;1693;49.602;11.046;2023-11-19T10:00:12;12.60;99.90
3360;DHT22;1693;49.602;11.046;2023-11-19T10:02:43;12.70;99.90
3360;DHT22;1693;49.602;11.046;2023-11-19T10:05:13;12.70;99.90
3360;DHT22;1693;49.602;11.046;2023-11-19T10:07:40;12.70;99.90
3360;DHT22;1693;49.602;11.046;2023-11-19T10:10:09;12.90;99.90
3360;DHT22;1693;49.602;11.046;2023-11-19T10:12:40;13.00;99.90
3360;DHT22;1693;49.602;11.046;2023-11-19T10:15:17;13.00;99.90
3360;DHT22;1693;49.602;11.046;2023-11-19T10:17:46;13.10;99.90
3360;DHT22;1693;49.602;11.046;2023-11-19T10:20:13;13.50;99.90
3360;DHT22;1693;49.602;11.046;2023-11-19T10:22:42;13.80;99.90
3360;DHT22;1693;49.602;11.046;2023-11-19T10:25:21;13.80;99.90
3360;DHT22;1693;49.602;11.046;2023-11-19T10:27:49;13.90;99.90
3360;DHT22;1693;49.602;11.046;2023-11-19T10:30:20;13.90;99.90
3360;DHT22;1693;49.602;11.046;2023-11-19T10:33:03;13.80;99.90
3360;DHT22;1693;49.602;11.046;2023-11-19T10:35:31;13.50;99.90
3360;DHT22;1693;49.602;11.046;2023-11-19T10:37:59;13.50;99.90
3360;DHT22;1693;49.602;11.046;2023-11-19T10:40:42;13.30;99.90
3360;DHT22;1693;49.602;11.046;2023-11-19T10:43:09;13.30;99.90
3360;DHT22;1693;49.602;11.046;2023-11-19T10:45:38;13.20;99.90
3360;DHT22;1693;49.602;11.046;2023-11-19T10:48:06;13.30;99.90
3360;DHT22;1693;49.602;11.046;2023-11-19T10:50:33;13.40;99.90
3360;DHT22;1693;49.602;11.046;2023-11-19T10:53:02;13.70;99.90
3360;DHT22;1693;49.602;11.046;2023-11-19T10:55:31;13.70;99.90
3360;DHT22;1693;49.602;11.046;2023-11-19T10:58:00;13.70;99.90
3360;DHT22;1693;49.602;11.046;2023-11-19T11:00:30;13.60;99.90
3360;DHT22;1693;49.602;11.046;2023-11-19T11:03:02;13.50;99.90
3360;DHT22;1693;49.602;11.046;2023-11-19T11:05:32;13.40;99.90
3360;DHT22;1693;49.602;11.046;2023-11-19T11:08:00;13.40;99.90
3360;DHT22;1693;49.602;11.046;2023-11-19T11:10:28;13.50;99.90
3360;DHT22;1693;49.602;11.046;2023-11-19T11:13:03;13.40;99.90
3360;DHT22;1693;49.602;11.046;2023-11-19T11:15:30;13.50;99.90
3360;DHT22;1693;49.602;11.046;2023-11-19T11:18:01;13.80;99.90
3360;DHT22;1693;49.602;11.046;2023-11-19T11:20:30;14.10;99.90
3360;DHT22;1693;49.602;11.046;2023-11-19T11:23:14;14.30;99.90
3360;DHT22;1693;49.602;11.046;2023-11-19T11:25:54;14.50;99.90
3360;DHT22;1693;49.602;11.046;2023-11-19T11:28:32;14.40;99.90
3360;DHT22;1693;49.602;11.046;2023-11-19T11:31:15;14.40;99.90
3360;DHT22;1693;49.602;11.046;2023-11-19T11:34:05;14.70;99.90
3360;DHT22;1693;49.602;11.046;2023-11-19T11:36:38;14.80;99.90
3360;DHT22;1693;49.602;11.046;2023-11-19T11:39:08;14.80;99.90
3360;DHT22;1693;49.602;11.046;2023-11-19T11:41:36;14.70;99.90
3360;DHT22;1693;49.602;11.046;2023-11-19T11:44:03;14.50;99.90
3360;DHT22;1693;49.602;11.046;2023-11-19T11:46:55;14.30;99.90
3360;DHT22;1693;49.602;11.046;2023-11-19T11:49:28;14.30;99.90
3360;DHT22;1693;49.602;11.046;2023-11-19T11:52:01;14.20;99.90
3360;DHT22;1693;49.602;11.046;2023-11-19T11:54:28;14.10;99.90
3360;DHT22;1693;49.602;11.046;2023-11-19T11:57:07;14.10;99.90
3360;DHT22;1693;49.602;11.046;2023-11-19T11:59:44;14.20;99.90
3360;DHT22;1693;49.602;11.046;2023-11-19T12:02:13;14.00;99.90
3360;DHT22;1693;49.602;11.046;2023-11-19T12:04:46;13.80;99.90
3360;DHT22;1693;49.602;11.046;2023-11-19T12:07:15;13.50;99.90
3360;DHT22;1693;49.602;11.046;2023-11-19T12:09:45;13.50;99.90
3360;DHT22;1693;49.602;11.046;2023-11-19T12:12:26;13.40;99.90
3360;DHT22;1693;49.602;11.046;2023-11-19T12:15:05;13.50;99.90
3360;DHT22;1693;49.602;11.046;2023-11-19T12:17:43;13.40;99.90
3360;DHT22;1693;49.602;11.046;2023-11-19T12:20:17;13.50;99.90
3360;DHT22;1693;49.602;11.046;2023-11-19T12:22:46;13.40;99.90
3360;DHT22;1693;49.602;11.046;2023-11-19T12:25:15;13.50;99.90
3360;DHT22;1693;49.602;11.046;2023-11-19T12:27:44;13.50;99.90
3360;DHT22;1693;49.602;11.046;2023-11-19T12:30:14;13.50;99.90
3360;DHT22;1693;49.602;11.046;2023-11-19T12:32:44;13.50;99.90
3360;DHT22;1693;49.602;11.046;2023-11-19T12:35:12;13.50;99.90
3360;DHT22;1693;49.602;11.046;2023-11-19T12:37:45;13.30;99.90
3360;DHT22;1693;49.602;11.046;2023-11-19T12:40:14;13.00;99.90
3360;DHT22;1693;49.602;11.046;2023-11-19T12:42:41;12.70;99.90
3360;DHT22;1693;49.602;11.046;2023-11-19T12:45:09;12.60;99.90
3360;DHT22;1693;49.602;11.046;2023-11-19T12:48:04;12.60;99.90
3360;DHT22;1693;49.602;11.046;2023-11-19T12:50:50;12.40;99.90
3360;DHT22;1693;49.602;11.046;2023-11-19T12:53:18;12.60;99.90
3360;DHT22;1693;49.602;11.046;2023-11-19T12:55:45;13.30;99.90
3360;DHT22;1693;49.602;11.046;2023-11-19T12:58:28;13.60;99.90
3360;DHT22;1693;49.602;11.046;2023-11-19T13:00:59;13.50;99.90
3360;DHT22;1693;49.602;11.046;2023-11-19T13:03:30;13.50;99.90
3360;DHT22;1693;49.602;11.046;2023-11-19T13:06:03;14.00;99.90
3360;DHT22;1693;49.602;11.046;2023-11-19T13:08:37;14.60;99.90
3360;DHT22;1693;49.602;11.046;2023-11-19T13:11:05;15.50;99.90
3360;DHT22;1693;49.602;11.046;2023-11-19T13:13:33;16.30;99.90
3360;DHT22;1693;49.602;11.046;2023-11-19T13:16:16;16.60;99.90
3360;DHT22;1693;49.602;11.046;2023-11-19T13:18:44;16.90;99.90
3360;DHT22;1693;49.602;11.046;2023-11-19T13:26:07;17.40;99.90
3360;DHT22;1693;49.602;11.046;2023-11-19T13:28:34;16.90;99.90
3360;DHT22;1693;49.602;11.046;2023-11-19T13:31:02;17.10;99.90
3360;DHT22;1693;49.602;11.046;2023-11-19T13:33:29;17.30;99.90
3360;DHT22;1693;49.602;11.046;2023-11-19T13:35:56;16.20;99.90
3360;DHT22;1693;49.602;11.046;2023-11-19T13:38:23;15.90;99.90
3360;DHT22;1693;49.602;11.046;2023-11-19T13:40:52;15.50;99.90
3360;DHT22;1693;49.602;11.046;2023-11-19T13:43:19;15.20;99.90
3360;DHT22;1693;49.602;11.046;2023-11-19T13:45:46;14.90;99.90
3360;DHT22;1693;49.602;11.046;2023-11-19T13:48:13;14.70;99.90
3360;DHT22;1693;49.602;11.046;2023-11-19T13:50:40;14.50;99.90
3360;DHT22;1693;49.602;11.046;2023-11-19T13:53:07;14.20;99.90
3360;DHT22;1693;49.602;11.046;2023-11-19T13:55:34;13.60;99.90
3360;DHT22;1693;49.602;11.046;2023-11-19T13:58:03;13.20;99.90
3360;DHT22;1693;49.602;11.046;2023-11-19T14:00:30;12.90;99.90
3360;DHT22;1693;49.602;11.046;2023-11-19T14:02:57;12.50;99.90
3360;DHT22;1693;49.602;11.046;2023-11-19T14:05:24;12.30;99.90
3360;DHT22;1693;49.602;11.046;2023-11-19T14:07:52;12.00;99.90
3360;DHT22;1693;49.602;11.046;2023-11-19T14:10:21;11.90;99.90
3360;DHT22;1693;49.602;11.046;2023-11-19T14:12:49;11.80;99.90
3360;DHT22;1693;49.602;11.046;2023-11-19T14:15:18;11.70;99.90
3360;DHT22;1693;49.602;11.046;2023-11-19T14:17:45;11.60;99.90
3360;DHT22;1693;49.602;11.046;2023-11-19T14:20:13;11.40;99.90
3360;DHT22;1693;49.602;11.046;2023-11-19T14:22:41;11.50;99.90
3360;DHT22;1693;49.602;11.046;2023-11-19T14:25:09;11.60;99.90
3360;DHT22;1693;49.602;11.046;2023-11-19T14:27:37;11.60;99.90
3360;DHT22;1693;49.602;11.046;2023-11-19T14:30:05;11.60;99.90
3360;DHT22;1693;49.602;11.046;2023-11-19T14:32:35;11.50;99.90
3360;DHT22;1693;49.602;11.046;2023-11-19T14:35:02;11.60;99.90
3360;DHT22;1693;49.602;11.046;2023-11-19T14:37:29;11.60;99.90
3360;DHT22;1693;49.602;11.046;2023-11-19T14:39:57;11.70;99.90
3360;DHT22;1693;49.602;11.046;2023-11-19T14:42:24;11.70;99.90
3360;DHT22;1693;49.602;11.046;2023-11-19T14:44:52;11.70;99.90
3360;DHT22;1693;49.602;11.046;2023-11-19T14:47:19;11.70;99.90
3360;DHT22;1693;49.602;11.046;2023-11-19T14:49:48;11.70;99.90
3360;DHT22;1693;49.602;11.046;2023-11-19T14:52:16;11.70;99.90
3360;DHT22;1693;49.602;11.046;2023-11-19T14:54:42;11.70;99.90
3360;DHT22;1693;49.602;11.046;2023-11-19T14:57:12;11.50;99.90
3360;DHT22;1693;49.602;11.046;2023-11-19T14:59:40;11.50;99.90
3360;DHT22;1693;49.602;11.046;2023-11-19T15:02:09;11.50;99.90
3360;DHT22;1693;49.602;11.046;2023-11-19T15:04:36;11.50;99.90
3360;DHT22;1693;49.602;11.046;2023-11-19T15:07:05;11.60;99.90
3360;DHT22;1693;49.602;11.046;2023-11-19T15:09:32;11.50;99.90
3360;DHT22;1693;49.602;11.046;2023-11-19T15:11:59;11.50;99.90
3360;DHT22;1693;49.602;11.046;2023-11-19T15:14:28;11.60;99.90
3360;DHT22;1693;49.602;11.046;2023-11-19T15:16:56;11.70;99.90
3360;DHT22;1693;49.602;11.046;2023-11-19T15:19:23;11.60;99.90
3360;DHT22;1693;49.602;11.046;2023-11-19T15:21:50;11.60;99.90
3360;DHT22;1693;49.602;11.046;2023-11-19T15:24:19;11.40;99.90
3360;DHT22;1693;49.602;11.046;2023-11-19T15:26:46;11.40;99.90
3360;DHT22;1693;49.602;11.046;2023-11-19T15:29:13;11.50;99.90
3360;DHT22;1693;49.602;11.046;2023-11-19T15:31:40;11.40;99.90
3360;DHT22;1693;49.602;11.046;2023-11-19T15:34:07;11.40;99.90
3360;DHT22;1693;49.602;11.046;2023-11-19T15:36:35;11.50;99.90
3360;DHT22;1693;49.602;11.046;2023-11-19T15:39:03;11.40;99.90
3360;DHT22;1693;49.602;11.046;2023-11-19T15:41:31;11.50;99.90
3360;DHT22;1693;49.602;11.046;2023-11-19T15:43:59;11.50;99.90
3360;DHT22;1693;49.602;11.046;2023-11-19T15:46:26;11.40;99.90
3360;DHT22;1693;49.602;11.046;2023-11-19T15:48:53;11.40;99.90
3360;DHT22;1693;49.602;11.046;2023-11-19T15:51:20;11.40;99.90
3360;DHT22;1693;49.602;11.046;2023-11-19T15:53:48;11.40;99.90
3360;DHT22;1693;49.602;11.046;2023-11-19T15:56:17;11.40;99.90
3360;DHT22;1693;49.602;11.046;2023-11-19T15:58:46;11.40;99.90
3360;DHT22;1693;49.602;11.046;2023-11-19T16:01:14;11.40;99.90
3360;DHT22;1693;49.602;11.046;2023-11-19T16:03:41;11.40;99.90
3360;DHT22;1693;49.602;11.046;2023-11-19T16:06:09;11.40;99.90
3360;DHT22;1693;49.602;11.046;2023-11-19T16:08:37;11.30;99.90
3360;DHT22;1693;49.602;11.046;2023-11-19T16:11:05;11.20;99.90
3360;DHT22;1693;49.602;11.046;2023-11-19T16:13:33;11.20;99.90
3360;DHT22;1693;49.602;11.046;2023-11-19T16:16:02;11.10;99.90
3360;DHT22;1693;49.602;11.046;2023-11-19T16:18:30;11.00;99.90
3360;DHT22;1693;49.602;11.046;2023-11-19T16:20:58;10.80;99.90
3360;DHT22;1693;49.602;11.046;2023-11-19T16:23:25;10.70;99.90
3360;DHT22;1693;49.602;11.046;2023-11-19T16:25:53;10.60;99.90
3360;DHT22;1693;49.602;11.046;2023-11-19T16:28:20;10.50;99.90
3360;DHT22;1693;49.602;11.046;2023-11-19T16:30:49;10.50;99.90
3360;DHT22;1693;49.602;11.046;2023-11-19T16:33:19;10.30;99.90
3360;DHT22;1693;49.602;11.046;2023-11-19T16:35:46;10.10;99.90
3360;DHT22;1693;49.602;11.046;2023-11-19T16:38:13;10.00;99.90
3360;DHT22;1693;49.602;11.046;2023-11-19T16:40:40;9.80;99.90
3360;DHT22;1693;49.602;11.046;2023-11-19T16:43:07;9.80;99.90
3360;DHT22;1693;49.602;11.046;2023-11-19T16:45:34;9.80;99.90
3360;DHT22;1693;49.602;11.046;2023-11-19T16:48:01;9.80;99.90
3360;DHT22;1693;49.602;11.046;2023-11-19T16:50:30;9.90;99.90
3360;DHT22;1693;49.602;11.046;2023-11-19T16:52:58;10.00;99.90
3360;DHT22;1693;49.602;11.046;2023-11-19T16:55:26;10.00;99.90
3360;DHT22;1693;49.602;11.046;2023-11-19T16:57:54;10.00;99.90
3360;DHT22;1693;49.602;11.046;2023-11-19T17:00:21;9.90;99.90
3360;DHT22;1693;49.602;11.046;2023-11-19T17:02:48;10.00;99.90
3360;DHT22;1693;49.602;11.046;2023-11-19T17:05:15;9.90;99.90
3360;DHT22;1693;49.602;11.046;2023-11-19T17:07:43;9.90;99.90
3360;DHT22;1693;49.602;11.046;2023-11-19T17:10:10;9.90;99.90
3360;DHT22;1693;49.602;11.046;2023-11-19T17:12:38;9.90;99.90
3360;DHT22;1693;49.602;11.046;2023-11-19T17:15:05;9.90;99.90
3360;DHT22;1693;49.602;11.046;2023-11-19T17:17:33;9.90;99.90
3360;DHT22;1693;49.602;11.046;2023-11-19T17:20:03;10.00;99.90
3360;DHT22;1693;49.602;11.046;2023-11-19T17:22:33;10.00;99.90
3360;DHT22;1693;49.602;11.046;2023-11-19T17:25:04;10.00;99.90
3360;DHT22;1693;49.602;11.046;2023-11-19T17:27:31;10.00;99.90
3360;DHT22;1693;49.602;11.046;2023-11-19T17:29:59;9.90;99.90
3360;DHT22;1693;49.602;11.046;2023-11-19T17:32:26;9.90;99.90
3360;DHT22;1693;49.602;11.046;2023-11-19T17:34:53;9.90;99.90
3360;DHT22;1693;49.602;11.046;2023-11-19T17:37:20;9.80;99.90
3360;DHT22;1693;49.602;11.046;2023-11-19T17:39:47;9.80;99.90
3360;DHT22;1693;49.602;11.046;2023-11-19T17:42:16;9.60;99.90
3360;DHT22;1693;49.602;11.046;2023-11-19T17:44:43;9.60;99.90
3360;DHT22;1693;49.602;11.046;2023-11-19T17:47:10;9.40;99.90
3360;DHT22;1693;49.602;11.046;2023-11-19T17:49:38;9.30;99.90
3360;DHT22;1693;49.602;11.046;2023-11-19T17:52:06;9.20;99.90
3360;DHT22;1693;49.602;11.046;2023-11-19T17:54:35;9.20;99.90
3360;DHT22;1693;49.602;11.046;2023-11-19T17:57:03;9.20;99.90
3360;DHT22;1693;49.602;11.046;2023-11-19T17:59:33;9.10;99.90
3360;DHT22;1693;49.602;11.046;2023-11-19T18:02:01;9.10;99.90
3360;DHT22;1693;49.602;11.046;2023-11-19T18:04:30;9.10;99.90
3360;DHT22;1693;49.602;11.046;2023-11-19T18:06:58;9.10;99.90
3360;DHT22;1693;49.602;11.046;2023-11-19T18:09:26;9.20;99.90
3360;DHT22;1693;49.602;11.046;2023-11-19T18:11:53;9.30;99.90
3360;DHT22;1693;49.602;11.046;2023-11-19T18:14:20;9.40;99.90
3360;DHT22;1693;49.602;11.046;2023-11-19T18:16:51;9.50;99.90
3360;DHT22;1693;49.602;11.046;2023-11-19T18:19:21;9.50;99.90
3360;DHT22;1693;49.602;11.046;2023-11-19T18:21:48;9.60;99.90
3360;DHT22;1693;49.602;11.046;2023-11-19T18:24:15;9.60;99.90
3360;DHT22;1693;49.602;11.046;2023-11-19T18:26:43;9.60;99.90
3360;DHT22;1693;49.602;11.046;2023-11-19T18:29:10;9.60;99.90
3360;DHT22;1693;49.602;11.046;2023-11-19T18:31:37;9.70;99.90
3360;DHT22;1693;49.602;11.046;2023-11-19T18:34:08;9.60;99.90
3360;DHT22;1693;49.602;11.046;2023-11-19T18:36:36;9.70;99.90
3360;DHT22;1693;49.602;11.046;2023-11-19T18:39:03;9.70;99.90
3360;DHT22;1693;49.602;11.046;2023-11-19T18:41:31;9.70;99.90
3360;DHT22;1693;49.602;11.046;2023-11-19T18:43:58;9.60;99.90
3360;DHT22;1693;49.602;11.046;2023-11-19T18:46:25;9.50;99.90
3360;DHT22;1693;49.602;11.046;2023-11-19T18:48:52;9.40;99.90
3360;DHT22;1693;49.602;11.046;2023-11-19T18:51:21;9.30;99.90
3360;DHT22;1693;49.602;11.046;2023-11-19T18:53:48;9.30;99.90
3360;DHT22;1693;49.602;11.046;2023-11-19T18:56:15;9.50;99.90
3360;DHT22;1693;49.602;11.046;2023-11-19T18:58:42;9.50;99.90
3360;DHT22;1693;49.602;11.046;2023-11-19T19:01:10;9.70;99.90
3360;DHT22;1693;49.602;11.046;2023-11-19T19:03:38;9.90;99.90
3360;DHT22;1693;49.602;11.046;2023-11-19T19:06:07;9.90;99.90
3360;DHT22;1693;49.602;11.046;2023-11-19T19:08:36;9.90;99.90
3360;DHT22;1693;49.602;11.046;2023-11-19T19:11:05;10.00;99.90
3360;DHT22;1693;49.602;11.046;2023-11-19T19:13:32;10.00;99.90
3360;DHT22;1693;49.602;11.046;2023-11-19T19:15:59;10.00;99.90
3360;DHT22;1693;49.602;11.046;2023-11-19T19:18:26;9.90;99.90
3360;DHT22;1693;49.602;11.046;2023-11-19T19:20:53;9.80;99.90
3360;DHT22;1693;49.602;11.046;2023-11-19T19:23:20;9.90;99.90
3360;DHT22;1693;49.602;11.046;2023-11-19T19:25:49;9.80;99.90
3360;DHT22;1693;49.602;11.046;2023-11-19T19:28:16;9.80;99.90
3360;DHT22;1693;49.602;11.046;2023-11-19T19:30:43;9.80;99.90
3360;DHT22;1693;49.602;11.046;2023-11-19T19:33:10;9.90;99.90
3360;DHT22;1693;49.602;11.046;2023-11-19T19:35:38;9.90;99.90
3360;DHT22;1693;49.602;11.046;2023-11-19T19:38:05;9.90;99.90
3360;DHT22;1693;49.602;11.046;2023-11-19T19:40:35;9.90;99.90
3360;DHT22;1693;49.602;11.046;2023-11-19T19:43:03;10.00;99.90
3360;DHT22;1693;49.602;11.046;2023-11-19T19:45:31;9.90;99.90
3360;DHT22;1693;49.602;11.046;2023-11-19T19:48:01;10.00;99.90